createdAt,value
2019-05-19T00:02:55.125Z,25.77
2019-05-19T00:08:02.667Z,26.33
2019-05-19T00:13:10.072Z,24.43
2019-05-19T00:18:17.304Z,27.37
2019-05-19T00:23:24.625Z,27.30
2019-05-19T00:28:31.957Z,26.57
2019-05-19T00:33:39.471Z,26.63
2019-05-19T00:38:46.929Z,26.67
2019-05-19T00:43:54.407Z,29.37
2019-05-19T00:49:03.032Z,26.90
2019-05-19T00:54:10.431Z,26.80
2019-05-19T00:59:18.719Z,24.97
2019-05-19T01:04:26.135Z,24.50
2019-05-19T01:09:33.491Z,25.27
2019-05-19T01:14:40.914Z,26.00
2019-05-19T01:19:55.604Z,27.33
2019-05-19T01:24:57.230Z,25.10
2019-05-19T01:30:04.709Z,26.00
2019-05-19T01:35:12.711Z,26.17
2019-05-19T01:40:20.228Z,29.13
2019-05-19T01:45:28.288Z,27.60
2019-05-19T01:50:35.828Z,27.13
2019-05-19T01:55:43.242Z,25.40
2019-05-19T02:00:50.700Z,28.97
2019-05-19T02:05:58.118Z,30.60
2019-05-19T02:11:05.589Z,28.73
2019-05-19T02:16:13.039Z,29.40
2019-05-19T02:21:20.465Z,30.07
2019-05-19T02:26:27.786Z,25.47
2019-05-19T02:31:35.137Z,28.43
2019-05-19T02:36:42.590Z,32.10
2019-05-19T02:41:53.157Z,30.07
2019-05-19T02:47:03.872Z,32.73
2019-05-19T02:52:13.684Z,29.37
2019-05-19T02:57:23.360Z,32.03
2019-05-19T03:02:30.763Z,30.13
2019-05-19T03:07:38.087Z,30.07
2019-05-19T03:12:45.520Z,30.53
2019-05-19T03:17:52.941Z,30.23
2019-05-19T03:23:00.300Z,31.03
2019-05-19T03:28:07.679Z,30.27
2019-05-19T03:33:17.074Z,28.53
2019-05-19T03:38:24.496Z,32.30
2019-05-19T03:43:31.803Z,28.47
2019-05-19T03:48:39.183Z,28.70
2019-05-19T03:53:46.556Z,31.70
2019-05-19T03:58:53.945Z,30.27
2019-05-19T04:04:01.184Z,32.70
2019-05-19T04:09:09.278Z,35.10
2019-05-19T04:14:16.666Z,34.90
2019-05-19T04:19:24.048Z,34.67
2019-05-19T04:24:31.406Z,33.67
2019-05-19T04:29:39.615Z,32.33
2019-05-19T04:34:47.135Z,33.60
2019-05-19T04:39:54.513Z,29.67
2019-05-19T04:45:01.833Z,32.40
2019-05-19T04:50:10.095Z,33.20
2019-05-19T04:55:17.481Z,33.40
2019-05-19T05:00:24.918Z,33.37
2019-05-19T05:05:32.290Z,31.13
2019-05-19T05:10:39.768Z,32.97
2019-05-19T05:15:47.139Z,33.27
2019-05-19T05:20:54.592Z,35.13
2019-05-19T05:26:01.979Z,33.40
2019-05-19T05:31:09.344Z,31.50
2019-05-19T05:36:16.757Z,30.97
2019-05-19T05:41:24.215Z,32.30
2019-05-19T05:46:31.570Z,31.93
2019-05-19T05:51:39.027Z,30.93
2019-05-19T05:56:46.446Z,33.97
2019-05-19T06:01:53.899Z,31.23
2019-05-19T06:07:01.343Z,31.77
2019-05-19T06:12:09.716Z,33.07
2019-05-19T06:17:16.966Z,32.47
2019-05-19T06:22:24.349Z,26.67
2019-05-19T06:27:31.673Z,21.77
2019-05-19T06:32:49.391Z,21.67
2019-05-19T06:37:56.845Z,20.90
2019-05-19T06:43:04.232Z,19.30
2019-05-19T06:48:11.630Z,16.13
2019-05-19T06:53:19.021Z,15.33
2019-05-19T06:58:26.383Z,17.87
2019-05-19T07:03:33.774Z,17.53
2019-05-19T07:08:42.400Z,15.77
2019-05-19T07:13:49.677Z,16.13
2019-05-19T07:18:57.221Z,18.37
2019-05-19T07:24:05.839Z,14.53
2019-05-19T07:29:13.150Z,13.90
2019-05-19T07:34:20.491Z,15.37
2019-05-19T07:39:27.905Z,18.13
2019-05-19T07:44:35.328Z,14.90
2019-05-19T07:49:42.636Z,15.67
2019-05-19T07:54:49.992Z,16.40
2019-05-19T07:59:57.466Z,16.53
2019-05-19T08:05:04.921Z,14.50
2019-05-19T08:10:12.866Z,13.43
2019-05-19T08:15:20.471Z,17.03
2019-05-19T08:20:27.962Z,14.87
2019-05-19T08:25:36.761Z,13.77
2019-05-19T08:30:44.188Z,14.73
2019-05-19T08:35:51.603Z,15.03
2019-05-19T08:40:58.975Z,13.20
2019-05-19T08:46:06.285Z,12.53
2019-05-19T08:51:13.686Z,11.90
2019-05-19T08:56:21.077Z,15.47
2019-05-19T09:01:28.535Z,13.93
2019-05-19T09:06:36.336Z,14.73
2019-05-19T09:11:43.739Z,13.83
2019-05-19T09:16:51.084Z,12.47
2019-05-19T09:21:58.496Z,14.90
2019-05-19T09:27:05.846Z,11.17
2019-05-19T09:32:13.246Z,13.13
2019-05-19T09:37:20.644Z,12.00
2019-05-19T09:42:27.981Z,11.70
2019-05-19T09:47:35.384Z,11.90
2019-05-19T09:52:42.749Z,12.63
2019-05-19T09:57:50.205Z,10.63
2019-05-19T10:02:57.589Z,12.60
2019-05-19T10:08:04.993Z,11.13
2019-05-19T10:13:12.470Z,10.47
2019-05-19T10:18:19.871Z,10.93
2019-05-19T10:23:27.219Z,11.37
2019-05-19T10:28:34.673Z,10.40
2019-05-19T10:33:42.127Z,9.43
2019-05-19T10:38:49.532Z,8.53
2019-05-19T10:44:02.697Z,9.23
2019-05-19T10:49:10.097Z,8.37
2019-05-19T10:54:26.069Z,8.47
2019-05-19T10:59:33.665Z,8.87
2019-05-19T11:04:41.287Z,7.83
2019-05-19T11:09:49.171Z,11.20
2019-05-19T11:14:56.575Z,8.50
2019-05-19T11:20:04.499Z,7.07
2019-05-19T11:25:12.866Z,7.60
2019-05-19T11:30:21.087Z,6.77
2019-05-19T11:35:28.904Z,8.57
2019-05-19T11:40:36.899Z,7.37
2019-05-19T11:45:44.725Z,7.93
2019-05-19T11:50:52.560Z,8.03
2019-05-19T11:56:06.609Z,9.47
2019-05-19T12:01:09.484Z,8.57
2019-05-19T12:06:16.829Z,9.80
2019-05-19T12:11:24.249Z,9.40
2019-05-19T12:16:31.668Z,7.65
2019-05-19T12:21:39.016Z,7.92
2019-05-19T12:26:46.357Z,7.67
2019-05-19T12:31:53.767Z,7.62
2019-05-19T12:37:01.186Z,7.58
2019-05-19T12:42:08.557Z,7.70
2019-05-19T12:47:16.342Z,7.17
2019-05-19T12:52:24.055Z,7.67
2019-05-19T12:57:32.190Z,6.58
2019-05-19T13:02:40.836Z,6.35
2019-05-19T13:07:48.840Z,5.67
2019-05-19T13:12:56.654Z,8.55
2019-05-19T13:18:04.238Z,8.48
2019-05-19T13:23:12.110Z,6.28
2019-05-19T13:28:19.742Z,6.70
2019-05-19T13:33:27.471Z,5.60
2019-05-19T13:38:35.307Z,8.10
2019-05-19T13:43:43.518Z,7.00
2019-05-19T13:48:51.357Z,5.72
2019-05-19T13:53:59.335Z,6.87
2019-05-19T13:59:07.470Z,5.67
2019-05-19T14:04:15.303Z,5.05
2019-05-19T14:09:23.201Z,5.70
2019-05-19T14:14:33.111Z,5.50
2019-05-19T14:19:41.707Z,10.03
2019-05-19T14:24:49.304Z,8.55
2019-05-19T14:29:56.901Z,6.47
2019-05-19T14:35:04.494Z,7.33
2019-05-19T14:40:12.996Z,4.92
2019-05-19T14:45:21.835Z,4.95
2019-05-19T14:50:29.948Z,5.55
2019-05-19T14:55:37.768Z,6.03
2019-05-19T15:00:45.104Z,4.67
2019-05-19T15:05:52.700Z,4.50
2019-05-19T15:11:00.456Z,4.30
2019-05-19T15:16:08.399Z,3.80
2019-05-19T15:21:15.716Z,4.40
2019-05-19T15:26:23.129Z,4.03
2019-05-19T15:31:30.953Z,5.10
2019-05-19T15:36:39.149Z,4.65
2019-05-19T15:41:46.510Z,6.35
2019-05-19T15:46:53.891Z,4.10
2019-05-19T15:52:04.260Z,3.50
2019-05-19T15:57:10.582Z,4.00
2019-05-19T16:02:17.935Z,4.00
2019-05-19T16:07:26.405Z,4.22
2019-05-19T16:12:33.720Z,4.22
2019-05-19T16:17:41.186Z,3.87
2019-05-19T16:22:48.634Z,4.33
2019-05-19T16:27:56.034Z,4.75
2019-05-19T16:33:03.428Z,4.22
2019-05-19T16:38:10.922Z,5.37
2019-05-19T16:43:18.255Z,4.78
2019-05-19T16:48:25.744Z,6.00
2019-05-19T16:53:33.197Z,5.28
2019-05-19T16:58:45.350Z,4.67
2019-05-19T17:03:49.588Z,4.67
2019-05-19T17:08:58.121Z,4.60
2019-05-19T17:14:05.617Z,6.10
2019-05-19T17:19:13.004Z,6.13
2019-05-19T17:24:20.447Z,9.93
2019-05-19T17:29:27.947Z,5.73
2019-05-19T17:34:35.402Z,6.47
2019-05-19T17:39:42.783Z,5.63
2019-05-19T17:44:50.077Z,5.20
2019-05-19T17:49:57.522Z,6.90
2019-05-19T17:55:05.459Z,6.17
2019-05-19T18:00:14.366Z,6.63
2019-05-19T18:05:21.824Z,17.47
2019-05-19T18:10:29.239Z,10.03
2019-05-19T18:15:37.455Z,7.17
2019-05-19T18:20:47.298Z,9.00
2019-05-19T18:25:57.075Z,10.87
2019-05-19T18:31:04.662Z,11.67
2019-05-19T18:36:14.382Z,13.17
2019-05-19T18:41:21.929Z,9.00
2019-05-19T18:46:29.529Z,10.87
2019-05-19T18:51:37.110Z,9.73
2019-05-19T18:56:44.577Z,7.43
2019-05-19T19:01:52.141Z,9.23
2019-05-19T19:06:59.649Z,8.73
2019-05-19T19:12:08.396Z,9.47
2019-05-19T19:17:15.980Z,10.17
2019-05-19T19:22:23.538Z,9.37
2019-05-19T19:27:31.191Z,8.37
2019-05-19T19:32:38.797Z,11.07
2019-05-19T19:37:47.486Z,8.00
2019-05-19T19:42:55.600Z,7.33
2019-05-19T19:48:03.211Z,9.80
2019-05-19T19:53:11.188Z,10.43
2019-05-19T19:58:19.018Z,8.53
2019-05-19T20:03:46.831Z,10.60
2019-05-19T20:08:54.438Z,7.73
2019-05-19T20:14:02.137Z,7.40
2019-05-19T20:19:09.511Z,8.93
2019-05-19T20:24:17.015Z,10.07
2019-05-19T20:29:24.413Z,8.83
2019-05-19T20:34:31.832Z,9.40
2019-05-19T20:39:39.361Z,10.03
2019-05-19T20:44:46.929Z,9.53
2019-05-19T20:49:54.457Z,12.13
2019-05-19T20:55:01.892Z,10.33
2019-05-19T21:00:11.210Z,8.50
2019-05-19T21:05:18.557Z,8.77
2019-05-19T21:10:25.858Z,10.13
2019-05-19T21:15:33.274Z,8.57
2019-05-19T21:20:40.692Z,8.77
2019-05-19T21:25:48.129Z,11.03
2019-05-19T21:31:05.233Z,11.63
2019-05-19T21:36:04.539Z,11.47
2019-05-19T21:41:11.888Z,10.30
2019-05-19T21:46:19.189Z,10.60
2019-05-19T21:51:26.624Z,9.50
2019-05-19T21:56:34.035Z,8.87
2019-05-19T22:01:41.459Z,8.57
2019-05-19T22:06:54.749Z,10.43
2019-05-19T22:12:02.049Z,10.37
2019-05-19T22:17:09.534Z,10.13
2019-05-19T22:22:16.867Z,10.20
2019-05-19T22:27:24.245Z,9.50
2019-05-19T22:32:31.518Z,10.03
2019-05-19T22:37:38.836Z,9.17
2019-05-19T22:42:46.218Z,8.43
2019-05-19T22:47:53.552Z,9.60
2019-05-19T22:53:00.938Z,8.83
2019-05-19T22:58:08.279Z,9.80
2019-05-19T23:03:15.748Z,8.93
2019-05-19T23:08:23.143Z,9.23
2019-05-19T23:13:30.442Z,10.17
2019-05-19T23:18:37.751Z,7.67
2019-05-19T23:23:45.248Z,9.60
2019-05-19T23:28:52.564Z,10.00
2019-05-19T23:33:59.990Z,10.20
2019-05-19T23:39:11.700Z,9.57
2019-05-19T23:44:19.036Z,8.57
2019-05-19T23:49:26.456Z,8.77
2019-05-19T23:54:33.829Z,8.03
2019-05-19T23:59:41.196Z,8.73
